Time;durP1;ratioP1;P1;durP2;ratioP2;P2;SDS_P1;SDS_P2;PMS_P1;PMS_P2;Temp;Humidity;BMP_temperature;BMP_pressure;BME280_temperature;BME280_humidity;BME280_pressure;Samples;Min_cycle;Max_cycle;Signal;HPM_P1;HPM_P2
2022/10/26 00:00:44;;;;;;;16.20;10.70;;;;;;;;;;5040464;28;20795;-84
2022/10/26 00:03:10;;;;;;;17.88;10.20;;;;;;;;;;5041999;28;20953;-83
2022/10/26 00:05:39;;;;;;;11.90;10.13;;;;;;;;;;5047411;28;20455;-87
2022/10/26 00:08:06;;;;;;;19.67;11.82;;;;;;;;;;5044276;28;20427;-85
2022/10/26 00:10:34;;;;;;;18.92;12.23;;;;;;;;;;5041623;28;20437;-84
2022/10/26 00:13:00;;;;;;;18.00;11.90;;;;;;;;;;5044569;28;20440;-85
2022/10/26 00:15:27;;;;;;;19.80;11.95;;;;;;;;;;5044441;28;20793;-82
2022/10/26 00:17:55;;;;;;;16.30;12.00;;;;;;;;;;5045408;28;20427;-84
2022/10/26 00:20:21;;;;;;;19.02;12.00;;;;;;;;;;5043744;28;20416;-82
2022/10/26 00:22:48;;;;;;;16.05;10.65;;;;;;;;;;5042512;28;20419;-83
2022/10/26 00:25:14;;;;;;;18.98;10.85;;;;;;;;;;5040075;28;20426;-83
2022/10/26 00:27:41;;;;;;;16.80;11.30;;;;;;;;;;5042524;28;20763;-84
2022/10/26 00:30:08;;;;;;;19.67;10.85;;;;;;;;;;5042128;28;20488;-85
2022/10/26 00:32:34;;;;;;;19.70;12.35;;;;;;;;;;5041225;28;20427;-83
2022/10/26 00:35:02;;;;;;;19.55;12.05;;;;;;;;;;5040543;28;20416;-83
2022/10/26 00:37:28;;;;;;;19.52;13.85;;;;;;;;;;5038674;28;20430;-83
2022/10/26 00:39:55;;;;;;;20.70;12.27;;;;;;;;;;5044784;28;20421;-84
2022/10/26 00:42:23;;;;;;;22.27;14.47;;;;;;;;;;5042650;28;20966;-84
2022/10/26 00:45:00;;;;;;;21.73;14.60;;;;;;;;;;5040705;28;20497;-85
2022/10/26 00:47:34;;;;;;;23.35;14.35;;;;;;;;;;5039494;28;20422;-84
2022/10/26 00:50:03;;;;;;;25.83;16.02;;;;;;;;;;5038626;28;20438;-82
2022/10/26 00:52:30;;;;;;;25.23;15.93;;;;;;;;;;5040731;28;20938;-83
2022/10/26 00:54:56;;;;;;;24.47;15.53;;;;;;;;;;5041052;28;20417;-85
2022/10/26 00:57:23;;;;;;;25.90;17.08;;;;;;;;;;5039425;28;20423;-84
2022/10/26 00:59:51;;;;;;;28.52;16.98;;;;;;;;;;5044073;28;20409;-83
2022/10/26 01:02:17;;;;;;;28.85;16.65;;;;;;;;;;5040197;28;20418;-82
2022/10/26 01:04:45;;;;;;;28.40;17.40;;;;;;;;;;5036284;28;20426;-84
2022/10/26 01:07:13;;;;;;;26.95;17.23;;;;;;;;;;5040258;28;20483;-84
2022/10/26 01:09:39;;;;;;;25.90;16.85;;;;;;;;;;5040104;28;20415;-83
2022/10/26 01:12:06;;;;;;;25.75;15.40;;;;;;;;;;5039476;28;20433;-84
2022/10/26 01:14:33;;;;;;;25.00;15.90;;;;;;;;;;5040149;28;20425;-83
2022/10/26 01:17:02;;;;;;;29.00;17.33;;;;;;;;;;5039917;28;20421;-83
2022/10/26 01:19:50;;;;;;;32.50;18.33;;;;;;;;;;5040819;28;20852;-84
2022/10/26 01:22:20;;;;;;;28.60;17.45;;;;;;;;;;5039728;28;20439;-83
2022/10/26 01:24:54;;;;;;;28.40;17.20;;;;;;;;;;5043280;28;20421;-83
2022/10/26 01:27:23;;;;;;;28.30;17.45;;;;;;;;;;5044274;28;20422;-83
2022/10/26 01:30:11;;;;;;;31.95;17.90;;;;;;;;;;5036597;28;20944;-85
2022/10/26 01:32:39;;;;;;;30.85;18.20;;;;;;;;;;5039136;28;20798;-84
2022/10/26 01:35:08;;;;;;;24.35;17.50;;;;;;;;;;5042318;28;20432;-85
2022/10/26 01:37:36;;;;;;;32.78;18.40;;;;;;;;;;5041354;28;20430;-83
2022/10/26 01:40:06;;;;;;;28.45;16.67;;;;;;;;;;5040549;28;20423;-83
2022/10/26 01:42:35;;;;;;;27.85;18.60;;;;;;;;;;5042817;28;20437;-83
2022/10/26 01:45:03;;;;;;;28.33;18.52;;;;;;;;;;5039592;28;20423;-83
2022/10/26 01:47:33;;;;;;;29.02;17.73;;;;;;;;;;5040012;28;20431;-83
2022/10/26 01:50:01;;;;;;;27.20;18.02;;;;;;;;;;5042686;28;20413;-84
2022/10/26 01:52:27;;;;;;;27.73;17.10;;;;;;;;;;5042267;28;20792;-83
2022/10/26 01:55:00;;;;;;;23.80;16.80;;;;;;;;;;5043148;28;20411;-83
2022/10/26 01:57:28;;;;;;;23.63;17.77;;;;;;;;;;5040095;28;20438;-82
2022/10/26 02:00:02;;;;;;;26.35;18.00;;;;;;;;;;5043421;28;20419;-84
2022/10/26 02:02:35;;;;;;;27.08;18.15;;;;;;;;;;5046750;28;20438;-82
2022/10/26 02:05:15;;;;;;;29.67;18.58;;;;;;;;;;5039767;28;20423;-83
2022/10/26 02:07:49;;;;;;;27.90;18.42;;;;;;;;;;5037742;28;20407;-83
2022/10/26 02:10:22;;;;;;;29.75;18.55;;;;;;;;;;5039801;28;20422;-85
2022/10/26 02:12:54;;;;;;;24.45;18.00;;;;;;;;;;5043139;28;20446;-84
2022/10/26 02:15:22;;;;;;;26.60;18.23;;;;;;;;;;5037684;28;20431;-83
2022/10/26 02:17:51;;;;;;;28.38;17.80;;;;;;;;;;5037532;28;20920;-83
2022/10/26 02:20:20;;;;;;;28.48;19.13;;;;;;;;;;5040497;28;20440;-83
2022/10/26 02:22:48;;;;;;;33.25;20.55;;;;;;;;;;5040727;28;20434;-83
2022/10/26 02:25:17;;;;;;;31.40;19.87;;;;;;;;;;5039581;28;20477;-83
2022/10/26 02:27:45;;;;;;;30.15;19.52;;;;;;;;;;5040620;28;20425;-83
2022/10/26 02:30:13;;;;;;;38.25;21.60;;;;;;;;;;5038873;28;20413;-84
2022/10/26 02:32:41;;;;;;;29.23;19.10;;;;;;;;;;5042650;28;20433;-84
2022/10/26 02:35:12;;;;;;;28.35;19.45;;;;;;;;;;5038380;28;20422;-83
2022/10/26 02:37:39;;;;;;;30.08;18.20;;;;;;;;;;5040385;28;20484;-82
2022/10/26 02:40:09;;;;;;;33.05;19.98;;;;;;;;;;5041330;28;20440;-83
2022/10/26 02:42:37;;;;;;;30.67;19.52;;;;;;;;;;5041620;28;20443;-83
2022/10/26 02:45:04;;;;;;;29.60;18.63;;;;;;;;;;5036973;28;20419;-84
2022/10/26 02:47:31;;;;;;;29.58;19.25;;;;;;;;;;5041724;28;20430;-84
2022/10/26 02:49:59;;;;;;;28.25;18.35;;;;;;;;;;5044873;28;20418;-83
2022/10/26 02:52:30;;;;;;;27.30;18.45;;;;;;;;;;5045697;28;20413;-83
2022/10/26 02:54:59;;;;;;;27.02;18.05;;;;;;;;;;5046513;28;20475;-85
2022/10/26 02:57:28;;;;;;;27.75;18.00;;;;;;;;;;5041078;28;20437;-84
2022/10/26 02:59:55;;;;;;;31.98;19.08;;;;;;;;;;5041337;28;20434;-83
2022/10/26 03:02:22;;;;;;;30.80;19.38;;;;;;;;;;5044472;28;20436;-84
2022/10/26 03:04:49;;;;;;;30.67;20.58;;;;;;;;;;5043422;28;20419;-85
2022/10/26 03:07:20;;;;;;;29.20;19.63;;;;;;;;;;5044466;28;20436;-84
2022/10/26 03:09:48;;;;;;;31.52;21.02;;;;;;;;;;5044582;28;20421;-84
2022/10/26 03:12:14;;;;;;;27.80;19.10;;;;;;;;;;5043131;28;20914;-84
2022/10/26 03:14:41;;;;;;;30.90;19.60;;;;;;;;;;5040279;28;20433;-85
2022/10/26 03:17:08;;;;;;;31.13;20.08;;;;;;;;;;5042668;28;20472;-84
2022/10/26 03:19:35;;;;;;;31.23;20.60;;;;;;;;;;5041472;28;20427;-84
2022/10/26 03:22:02;;;;;;;34.58;20.73;;;;;;;;;;5044392;28;20421;-84
2022/10/26 03:24:28;;;;;;;33.23;21.30;;;;;;;;;;5047918;28;20948;-84
2022/10/26 03:26:56;;;;;;;32.95;20.73;;;;;;;;;;5044247;28;20421;-83
2022/10/26 03:29:22;;;;;;;27.83;20.13;;;;;;;;;;5043028;28;20409;-84
2022/10/26 03:31:53;;;;;;;27.77;19.10;;;;;;;;;;5043658;28;20433;-84
2022/10/26 03:34:19;;;;;;;28.17;18.65;;;;;;;;;;5046278;28;20418;-84
2022/10/26 03:36:45;;;;;;;28.48;19.48;;;;;;;;;;5044510;28;20427;-84
2022/10/26 03:39:12;;;;;;;24.67;17.52;;;;;;;;;;5046270;28;20502;-84
2022/10/26 03:41:38;;;;;;;30.70;19.13;;;;;;;;;;5041714;28;20479;-84
2022/10/26 03:44:06;;;;;;;25.27;17.73;;;;;;;;;;5044030;28;20441;-84
2022/10/26 03:46:32;;;;;;;26.23;17.67;;;;;;;;;;5038920;28;20455;-84
2022/10/26 03:48:59;;;;;;;24.50;18.48;;;;;;;;;;5040196;28;20425;-83
2022/10/26 03:51:25;;;;;;;32.25;19.23;;;;;;;;;;5041877;28;20426;-84
2022/10/26 03:53:52;;;;;;;26.83;18.15;;;;;;;;;;5041327;28;20417;-85
2022/10/26 03:56:18;;;;;;;25.97;17.90;;;;;;;;;;5040779;28;20425;-85
2022/10/26 03:58:44;;;;;;;29.75;19.30;;;;;;;;;;5043457;28;20435;-84
2022/10/26 04:01:12;;;;;;;29.48;18.90;;;;;;;;;;5041648;28;20435;-84
2022/10/26 04:03:39;;;;;;;27.42;18.40;;;;;;;;;;5044202;28;20450;-84
2022/10/26 04:06:05;;;;;;;27.02;18.00;;;;;;;;;;5038205;28;20959;-84
2022/10/26 04:08:32;;;;;;;26.85;18.90;;;;;;;;;;5043191;28;20421;-84
2022/10/26 04:10:58;;;;;;;29.40;20.20;;;;;;;;;;5039008;28;20426;-85
2022/10/26 04:13:24;;;;;;;26.67;18.63;;;;;;;;;;5038143;28;20429;-85
2022/10/26 04:15:51;;;;;;;28.45;19.20;;;;;;;;;;5039173;28;20429;-84
2022/10/26 04:18:19;;;;;;;28.45;18.77;;;;;;;;;;5043639;28;20433;-84
2022/10/26 04:20:45;;;;;;;28.10;18.67;;;;;;;;;;5039595;28;20430;-84
2022/10/26 04:23:12;;;;;;;28.90;18.55;;;;;;;;;;5042842;28;20411;-83
2022/10/26 04:25:38;;;;;;;27.42;18.33;;;;;;;;;;5042191;28;20433;-84
2022/10/26 04:28:05;;;;;;;28.70;19.75;;;;;;;;;;5042913;28;20424;-84
2022/10/26 04:30:32;;;;;;;30.45;20.38;;;;;;;;;;5040609;28;20437;-84
2022/10/26 04:32:58;;;;;;;27.85;18.40;;;;;;;;;;5042517;28;20430;-84
2022/10/26 04:35:27;;;;;;;27.23;19.20;;;;;;;;;;5041452;28;20440;-83
2022/10/26 04:37:57;;;;;;;27.40;19.95;;;;;;;;;;5039625;28;20425;-83
2022/10/26 04:40:23;;;;;;;30.83;20.33;;;;;;;;;;5041281;28;20943;-83
2022/10/26 04:42:49;;;;;;;27.75;18.70;;;;;;;;;;5043160;28;20784;-84
2022/10/26 04:45:16;;;;;;;29.48;19.67;;;;;;;;;;5041359;28;20417;-84
2022/10/26 04:47:43;;;;;;;28.35;19.48;;;;;;;;;;5040799;28;20440;-83
2022/10/26 04:50:10;;;;;;;28.15;19.88;;;;;;;;;;5040252;28;20421;-84
2022/10/26 04:52:38;;;;;;;26.23;18.80;;;;;;;;;;5043175;28;20433;-84
2022/10/26 04:55:05;;;;;;;30.05;19.90;;;;;;;;;;5041433;28;20422;-84
2022/10/26 04:57:34;;;;;;;30.45;19.27;;;;;;;;;;5039192;28;20437;-84
2022/10/26 05:00:00;;;;;;;30.33;19.10;;;;;;;;;;5042153;28;20421;-84
2022/10/26 05:02:27;;;;;;;30.58;19.40;;;;;;;;;;5040944;28;20425;-84
2022/10/26 05:04:53;;;;;;;31.80;20.80;;;;;;;;;;5042391;28;20764;-84
2022/10/26 05:07:20;;;;;;;30.50;19.90;;;;;;;;;;5043295;28;20500;-83
2022/10/26 05:09:47;;;;;;;31.50;19.80;;;;;;;;;;5040366;28;20422;-83
2022/10/26 05:12:14;;;;;;;30.45;20.30;;;;;;;;;;5040030;28;20512;-83
2022/10/26 05:14:40;;;;;;;29.25;20.10;;;;;;;;;;5040597;28;20422;-82
2022/10/26 05:17:06;;;;;;;27.30;19.10;;;;;;;;;;5040517;28;20415;-82
2022/10/26 05:19:33;;;;;;;26.00;18.70;;;;;;;;;;5041238;28;20454;-82
2022/10/26 05:21:59;;;;;;;26.20;17.80;;;;;;;;;;5040108;28;20429;-82
2022/10/26 05:24:27;;;;;;;22.52;15.95;;;;;;;;;;5040135;28;20431;-82
2022/10/26 05:26:55;;;;;;;24.08;16.60;;;;;;;;;;5040531;28;20437;-81
2022/10/26 05:29:22;;;;;;;25.33;16.30;;;;;;;;;;5039416;28;20421;-81
2022/10/26 05:31:48;;;;;;;28.23;17.70;;;;;;;;;;5038943;28;20615;-83
2022/10/26 05:34:14;;;;;;;24.08;17.02;;;;;;;;;;5041150;28;20434;-82
2022/10/26 05:36:41;;;;;;;26.80;18.50;;;;;;;;;;5040751;28;20498;-82
2022/10/26 05:39:07;;;;;;;28.55;17.45;;;;;;;;;;5042186;28;20431;-82
2022/10/26 05:41:33;;;;;;;21.80;16.90;;;;;;;;;;5043495;28;20507;-82
2022/10/26 05:44:01;;;;;;;22.95;15.93;;;;;;;;;;5043119;28;20827;-81
2022/10/26 05:46:30;;;;;;;24.95;16.25;;;;;;;;;;5038258;28;20427;-85
2022/10/26 05:48:57;;;;;;;25.67;17.55;;;;;;;;;;5042023;28;20409;-80
2022/10/26 05:51:23;;;;;;;30.48;18.95;;;;;;;;;;5037097;28;20423;-80
2022/10/26 05:53:53;;;;;;;26.25;17.67;;;;;;;;;;5042036;28;20426;-80
2022/10/26 05:56:20;;;;;;;25.10;17.40;;;;;;;;;;5041855;28;20470;-80
2022/10/26 05:58:47;;;;;;;26.00;17.02;;;;;;;;;;5039361;28;20480;-80
2022/10/26 06:01:20;;;;;;;26.48;17.38;;;;;;;;;;5040777;28;20801;-81
2022/10/26 06:03:58;;;;;;;26.90;17.60;;;;;;;;;;5037881;28;20446;-80
2022/10/26 06:06:25;;;;;;;25.45;17.10;;;;;;;;;;5038028;28;20430;-81
2022/10/26 06:08:52;;;;;;;28.95;16.92;;;;;;;;;;5039573;28;20889;-80
2022/10/26 06:11:19;;;;;;;25.30;17.30;;;;;;;;;;5039130;28;20432;-81
2022/10/26 06:13:45;;;;;;;27.55;17.70;;;;;;;;;;5037305;28;20431;-81
2022/10/26 06:16:29;;;;;;;25.90;16.77;;;;;;;;;;5042052;28;20428;-81
2022/10/26 06:19:01;;;;;;;22.98;16.90;;;;;;;;;;5038842;28;20425;-82
2022/10/26 06:21:34;;;;;;;24.73;16.77;;;;;;;;;;5041453;28;20809;-82
2022/10/26 06:24:05;;;;;;;24.10;17.17;;;;;;;;;;5040944;28;20417;-81
2022/10/26 06:26:36;;;;;;;27.08;16.45;;;;;;;;;;5042056;28;20422;-80
2022/10/26 06:29:09;;;;;;;28.10;16.90;;;;;;;;;;5044144;28;20411;-81
2022/10/26 06:31:37;;;;;;;28.48;16.75;;;;;;;;;;5046897;28;20417;-83
2022/10/26 06:34:04;;;;;;;26.10;16.90;;;;;;;;;;5043420;28;20784;-82
2022/10/26 06:36:31;;;;;;;22.60;15.30;;;;;;;;;;5040508;28;20434;-83
2022/10/26 06:39:00;;;;;;;25.95;16.00;;;;;;;;;;5045101;28;20429;-82
2022/10/26 06:41:26;;;;;;;24.27;16.27;;;;;;;;;;5043272;28;20419;-82
2022/10/26 06:43:53;;;;;;;27.42;16.20;;;;;;;;;;5044514;28;20518;-82
2022/10/26 06:46:25;;;;;;;24.05;16.67;;;;;;;;;;5044365;28;20941;-81
2022/10/26 06:48:55;;;;;;;25.02;15.00;;;;;;;;;;5042682;28;20431;-83
2022/10/26 06:51:23;;;;;;;19.80;14.73;;;;;;;;;;5045906;28;20450;-83
2022/10/26 06:53:53;;;;;;;21.27;15.30;;;;;;;;;;5042499;28;20419;-80
2022/10/26 06:56:19;;;;;;;22.65;15.18;;;;;;;;;;5041379;28;20426;-83
2022/10/26 06:58:46;;;;;;;22.17;16.00;;;;;;;;;;5043151;28;20438;-80
2022/10/26 07:01:12;;;;;;;24.48;16.27;;;;;;;;;;5040925;28;20434;-82
2022/10/26 07:03:39;;;;;;;26.10;17.03;;;;;;;;;;5043300;28;20941;-83
2022/10/26 07:06:08;;;;;;;24.17;16.40;;;;;;;;;;5039651;28;20441;-82
2022/10/26 07:08:35;;;;;;;29.90;16.80;;;;;;;;;;5043983;28;20437;-83
2022/10/26 07:11:03;;;;;;;27.00;16.53;;;;;;;;;;5041177;28;20521;-82
2022/10/26 07:13:29;;;;;;;27.55;17.05;;;;;;;;;;5040920;28;20432;-81
2022/10/26 07:15:55;;;;;;;25.40;16.50;;;;;;;;;;5041352;28;20796;-82
2022/10/26 07:18:22;;;;;;;26.02;16.73;;;;;;;;;;5042813;28;20441;-81
2022/10/26 07:20:49;;;;;;;25.30;17.08;;;;;;;;;;5041417;28;20431;-81
2022/10/26 07:23:17;;;;;;;25.58;17.00;;;;;;;;;;5042449;28;20444;-81
2022/10/26 07:25:43;;;;;;;27.33;17.65;;;;;;;;;;5042880;28;21053;-81
2022/10/26 07:28:10;;;;;;;27.70;17.45;;;;;;;;;;5041469;28;20443;-80
2022/10/26 07:30:37;;;;;;;32.50;20.08;;;;;;;;;;5043704;28;20422;-83
2022/10/26 07:33:04;;;;;;;33.37;19.30;;;;;;;;;;5043845;28;20472;-83
2022/10/26 07:35:32;;;;;;;31.25;19.90;;;;;;;;;;5042355;28;20413;-83
2022/10/26 07:37:58;;;;;;;40.45;21.23;;;;;;;;;;5043041;28;20429;-83
2022/10/26 07:40:26;;;;;;;33.40;21.52;;;;;;;;;;5038535;28;20432;-83
2022/10/26 07:42:54;;;;;;;35.38;20.92;;;;;;;;;;5045160;28;20939;-82
2022/10/26 07:45:20;;;;;;;33.30;20.73;;;;;;;;;;5040151;28;20993;-82
2022/10/26 07:47:48;;;;;;;33.35;19.65;;;;;;;;;;5044219;28;20437;-82
2022/10/26 07:50:14;;;;;;;28.27;19.37;;;;;;;;;;5041925;28;20419;-83
2022/10/26 07:52:40;;;;;;;33.42;20.92;;;;;;;;;;5042856;28;20487;-82
2022/10/26 07:55:07;;;;;;;31.25;20.80;;;;;;;;;;5044624;28;20421;-83
2022/10/26 07:57:35;;;;;;;34.60;20.88;;;;;;;;;;5045705;28;20945;-82
2022/10/26 08:00:02;;;;;;;33.95;22.92;;;;;;;;;;5041800;28;20426;-82
2022/10/26 08:02:28;;;;;;;34.88;21.38;;;;;;;;;;5042799;28;20433;-83
2022/10/26 08:04:54;;;;;;;28.63;20.10;;;;;;;;;;5043669;28;20793;-82
2022/10/26 08:07:24;;;;;;;33.55;20.98;;;;;;;;;;5043045;28;20434;-83
2022/10/26 08:09:51;;;;;;;34.80;21.67;;;;;;;;;;5037972;28;20413;-81
2022/10/26 08:12:17;;;;;;;32.83;20.08;;;;;;;;;;5040388;28;20928;-81
2022/10/26 08:14:45;;;;;;;34.97;21.13;;;;;;;;;;5045162;28;20409;-82
2022/10/26 08:17:12;;;;;;;33.35;20.67;;;;;;;;;;5039758;28;20470;-83
2022/10/26 08:19:38;;;;;;;30.63;20.43;;;;;;;;;;5042013;28;20409;-83
2022/10/26 08:22:05;;;;;;;32.60;21.08;;;;;;;;;;5043640;28;20445;-82
2022/10/26 08:24:32;;;;;;;33.45;19.05;;;;;;;;;;5041467;28;20425;-82
2022/10/26 08:26:58;;;;;;;27.42;19.48;;;;;;;;;;5041797;28;20429;-82
2022/10/26 08:29:25;;;;;;;34.80;20.10;;;;;;;;;;5038979;28;20489;-82
2022/10/26 08:31:53;;;;;;;34.08;19.75;;;;;;;;;;5041243;28;20434;-82
2022/10/26 08:34:19;;;;;;;27.77;19.75;;;;;;;;;;5041760;28;20431;-81
2022/10/26 08:36:49;;;;;;;28.58;18.38;;;;;;;;;;5032277;28;20419;-82
2022/10/26 08:39:15;;;;;;;28.02;18.75;;;;;;;;;;5041120;28;20509;-81
2022/10/26 08:41:42;;;;;;;26.60;19.35;;;;;;;;;;5043691;28;20781;-81
2022/10/26 08:44:18;;;;;;;33.13;19.20;;;;;;;;;;5041608;28;20427;-81
2022/10/26 08:46:46;;;;;;;30.40;19.38;;;;;;;;;;5042323;28;20432;-82
2022/10/26 08:49:19;;;;;;;28.33;18.70;;;;;;;;;;5040948;28;20433;-83
2022/10/26 08:51:46;;;;;;;31.52;17.77;;;;;;;;;;5043796;28;20797;-81
2022/10/26 08:54:15;;;;;;;27.77;17.17;;;;;;;;;;5039247;28;20438;-82
2022/10/26 08:56:43;;;;;;;28.85;16.73;;;;;;;;;;5042944;28;20432;-81
2022/10/26 08:59:13;;;;;;;19.85;14.30;;;;;;;;;;5041738;28;20436;-81
2022/10/26 09:01:41;;;;;;;25.23;16.63;;;;;;;;;;5042678;28;20459;-83
2022/10/26 09:04:10;;;;;;;23.73;15.00;;;;;;;;;;5039616;28;20435;-81
2022/10/26 09:06:42;;;;;;;20.00;14.13;;;;;;;;;;5041360;28;20951;-83
2022/10/26 09:09:14;;;;;;;22.42;15.73;;;;;;;;;;5042402;28;20438;-83
2022/10/26 09:11:48;;;;;;;19.98;14.57;;;;;;;;;;5040588;28;20435;-83
2022/10/26 09:14:18;;;;;;;18.30;14.70;;;;;;;;;;5043383;28;20413;-82
2022/10/26 09:16:49;;;;;;;18.77;13.63;;;;;;;;;;5040772;28;20779;-83
2022/10/26 09:19:27;;;;;;;19.10;13.00;;;;;;;;;;5041651;28;20810;-83
2022/10/26 09:22:00;;;;;;;19.00;13.60;;;;;;;;;;5038811;28;20436;-83
2022/10/26 09:24:29;;;;;;;23.98;13.75;;;;;;;;;;5039249;28;20429;-82
2022/10/26 09:26:59;;;;;;;20.25;13.30;;;;;;;;;;5041563;28;20429;-83
2022/10/26 09:29:27;;;;;;;22.30;13.25;;;;;;;;;;5041023;28;20427;-82
2022/10/26 09:31:56;;;;;;;21.63;13.60;;;;;;;;;;5040848;28;20429;-82
2022/10/26 09:34:29;;;;;;;22.17;13.25;;;;;;;;;;5041424;28;20431;-81
2022/10/26 09:36:58;;;;;;;23.73;16.80;;;;;;;;;;5041350;28;20417;-81
2022/10/26 09:39:29;;;;;;;22.80;14.52;;;;;;;;;;5039515;28;20433;-82
2022/10/26 09:41:58;;;;;;;18.73;12.07;;;;;;;;;;5039493;28;20433;-82
2022/10/26 09:44:26;;;;;;;20.30;12.03;;;;;;;;;;5042121;28;20486;-83
2022/10/26 09:46:55;;;;;;;17.02;10.80;;;;;;;;;;5042767;28;20427;-83
2022/10/26 09:49:25;;;;;;;16.88;11.63;;;;;;;;;;5040270;28;20427;-82
2022/10/26 09:51:52;;;;;;;18.10;11.30;;;;;;;;;;5037676;28;20501;-80
2022/10/26 09:54:21;;;;;;;17.13;11.70;;;;;;;;;;5040454;28;20434;-81
2022/10/26 09:56:50;;;;;;;17.08;10.45;;;;;;;;;;5043152;28;20420;-82
2022/10/26 09:59:18;;;;;;;12.25;9.80;;;;;;;;;;5045427;28;20433;-81
2022/10/26 10:01:44;;;;;;;12.00;9.93;;;;;;;;;;5044814;28;20817;-80
2022/10/26 10:04:18;;;;;;;13.73;10.25;;;;;;;;;;5045369;28;20418;-81
2022/10/26 10:06:45;;;;;;;14.98;10.40;;;;;;;;;;5043483;28;20936;-82
2022/10/26 10:09:13;;;;;;;15.38;9.90;;;;;;;;;;5046609;28;20455;-81
2022/10/26 10:11:42;;;;;;;13.70;9.70;;;;;;;;;;5043797;28;20798;-81
2022/10/26 10:14:13;;;;;;;16.45;9.52;;;;;;;;;;5045685;28;20766;-82
2022/10/26 10:16:40;;;;;;;14.93;10.10;;;;;;;;;;5043262;28;20955;-80
2022/10/26 10:19:21;;;;;;;13.13;8.70;;;;;;;;;;5046426;28;20412;-82
2022/10/26 10:21:49;;;;;;;15.68;8.70;;;;;;;;;;5045916;28;20417;-81
2022/10/26 10:24:22;;;;;;;16.00;8.85;;;;;;;;;;5043624;28;20953;-81
2022/10/26 10:26:58;;;;;;;13.10;8.35;;;;;;;;;;5048208;28;20426;-81
2022/10/26 10:29:25;;;;;;;19.90;8.52;;;;;;;;;;5045423;28;20417;-81
2022/10/26 10:31:55;;;;;;;15.75;10.20;;;;;;;;;;5044191;28;20425;-81
2022/10/26 10:34:22;;;;;;;23.23;10.97;;;;;;;;;;5041331;28;20432;-82
2022/10/26 10:36:49;;;;;;;21.83;12.53;;;;;;;;;;5041217;28;20809;-83
2022/10/26 10:39:26;;;;;;;19.10;11.40;;;;;;;;;;5046119;28;20432;-83
2022/10/26 10:41:53;;;;;;;16.93;10.40;;;;;;;;;;5043135;28;20422;-82
2022/10/26 10:44:22;;;;;;;16.73;10.00;;;;;;;;;;5045482;28;21027;-82
2022/10/26 10:46:49;;;;;;;12.45;8.02;;;;;;;;;;5042721;28;20421;-82
2022/10/26 10:49:18;;;;;;;10.57;7.90;;;;;;;;;;5043275;28;20421;-83
2022/10/26 10:51:44;;;;;;;12.47;7.27;;;;;;;;;;5043779;28;20422;-83
2022/10/26 10:54:18;;;;;;;9.52;6.60;;;;;;;;;;5045899;28;20434;-83
2022/10/26 10:56:47;;;;;;;11.48;6.90;;;;;;;;;;5043776;28;20426;-83
2022/10/26 10:59:34;;;;;;;13.07;7.28;;;;;;;;;;5026926;28;20469;-82
2022/10/26 11:02:14;;;;;;;10.80;7.90;;;;;;;;;;5035269;28;20434;-83
2022/10/26 11:04:57;;;;;;;11.35;7.00;;;;;;;;;;5042555;28;20436;-81
2022/10/26 11:07:25;;;;;;;9.52;7.65;;;;;;;;;;5045968;28;20945;-82
2022/10/26 11:09:53;;;;;;;11.43;7.53;;;;;;;;;;5043867;28;20490;-82
2022/10/26 11:12:23;;;;;;;12.82;8.48;;;;;;;;;;5043012;28;20421;-82
2022/10/26 11:14:52;;;;;;;12.30;7.72;;;;;;;;;;5045904;28;20429;-81
2022/10/26 11:17:21;;;;;;;9.32;7.38;;;;;;;;;;5044445;28;20433;-82
2022/10/26 11:19:50;;;;;;;11.10;7.83;;;;;;;;;;5041555;28;20429;-83
2022/10/26 11:22:19;;;;;;;12.98;7.30;;;;;;;;;;5045309;28;20432;-82
2022/10/26 11:24:49;;;;;;;13.30;8.00;;;;;;;;;;5042955;28;20433;-83
2022/10/26 11:27:17;;;;;;;14.25;8.45;;;;;;;;;;5042116;28;20450;-81
2022/10/26 11:29:47;;;;;;;12.95;8.15;;;;;;;;;;5044845;28;20454;-82
2022/10/26 11:32:15;;;;;;;10.85;7.95;;;;;;;;;;5043883;28;20437;-83
2022/10/26 11:34:47;;;;;;;11.48;7.80;;;;;;;;;;5044677;28;20440;-82
2022/10/26 11:37:17;;;;;;;11.40;7.90;;;;;;;;;;5042988;28;20961;-83
2022/10/26 11:39:45;;;;;;;11.80;8.40;;;;;;;;;;5042082;28;20956;-82
2022/10/26 11:42:19;;;;;;;11.43;8.02;;;;;;;;;;5043874;28;20839;-81
2022/10/26 11:44:49;;;;;;;10.20;7.87;;;;;;;;;;5041785;28;20442;-82
2022/10/26 11:47:18;;;;;;;11.25;7.57;;;;;;;;;;5042455;28;20438;-82
2022/10/26 11:49:47;;;;;;;14.93;7.63;;;;;;;;;;5042569;28;20429;-82
2022/10/26 11:52:18;;;;;;;9.38;6.90;;;;;;;;;;5041756;28;20476;-82
2022/10/26 11:54:47;;;;;;;11.23;6.93;;;;;;;;;;5043221;28;20437;-82
2022/10/26 11:57:15;;;;;;;9.35;7.00;;;;;;;;;;5040249;28;20423;-82
2022/10/26 11:59:43;;;;;;;11.75;6.28;;;;;;;;;;5042354;28;20972;-82
2022/10/26 12:02:14;;;;;;;11.98;7.70;;;;;;;;;;5042882;28;20436;-82
2022/10/26 12:04:41;;;;;;;12.15;7.68;;;;;;;;;;5043306;28;20435;-83
2022/10/26 12:07:11;;;;;;;11.85;7.47;;;;;;;;;;5041228;28;20427;-83
2022/10/26 12:09:39;;;;;;;12.85;7.93;;;;;;;;;;5042758;28;20425;-83
2022/10/26 12:12:08;;;;;;;9.47;6.97;;;;;;;;;;5044690;28;20433;-82
2022/10/26 12:14:39;;;;;;;10.63;8.00;;;;;;;;;;5042407;28;21067;-81
2022/10/26 12:17:09;;;;;;;10.40;7.10;;;;;;;;;;5043096;28;20441;-82
2022/10/26 12:19:48;;;;;;;11.38;8.00;;;;;;;;;;5041952;28;20438;-81
2022/10/26 12:22:17;;;;;;;10.15;7.90;;;;;;;;;;5044329;28;20430;-83
2022/10/26 12:24:44;;;;;;;10.32;7.40;;;;;;;;;;5042342;28;21031;-82
2022/10/26 12:27:29;;;;;;;9.35;7.30;;;;;;;;;;5042537;28;20428;-84
2022/10/26 12:30:16;;;;;;;12.23;7.97;;;;;;;;;;5040930;28;20433;-81
2022/10/26 12:32:49;;;;;;;9.90;7.27;;;;;;;;;;5043238;28;20426;-85
2022/10/26 12:35:35;;;;;;;9.65;6.85;;;;;;;;;;5041006;28;20920;-82
2022/10/26 12:38:22;;;;;;;10.85;7.63;;;;;;;;;;5041644;28;20443;-81
2022/10/26 12:40:49;;;;;;;10.07;6.97;;;;;;;;;;5039430;28;20434;-82
2022/10/26 12:43:35;;;;;;;12.25;7.60;;;;;;;;;;5040171;28;20809;-83
2022/10/26 12:46:20;;;;;;;8.38;7.20;;;;;;;;;;5041123;28;20424;-84
2022/10/26 12:48:47;;;;;;;11.98;7.47;;;;;;;;;;5041032;28;20429;-85
2022/10/26 12:51:35;;;;;;;9.50;6.68;;;;;;;;;;5041841;28;20414;-82
2022/10/26 12:54:07;;;;;;;8.63;6.47;;;;;;;;;;5041233;28;20449;-81
2022/10/26 12:56:36;;;;;;;12.85;7.07;;;;;;;;;;5041554;28;20425;-81
2022/10/26 12:59:19;;;;;;;9.55;6.82;;;;;;;;;;5042236;28;20938;-83
2022/10/26 13:02:03;;;;;;;11.18;7.30;;;;;;;;;;5039528;28;20419;-83
2022/10/26 13:04:47;;;;;;;9.20;6.88;;;;;;;;;;5040952;28;21181;-83
2022/10/26 13:07:19;;;;;;;9.90;6.87;;;;;;;;;;5030950;28;20431;-84
2022/10/26 13:09:54;;;;;;;8.15;6.75;;;;;;;;;;5038449;28;20496;-84
2022/10/26 13:12:21;;;;;;;8.55;6.28;;;;;;;;;;5040391;28;20426;-83
2022/10/26 13:14:57;;;;;;;13.52;6.32;;;;;;;;;;5039079;28;20782;-83
2022/10/26 13:17:26;;;;;;;12.13;5.88;;;;;;;;;;5040126;28;20429;-83
2022/10/26 13:19:56;;;;;;;9.77;6.13;;;;;;;;;;5039887;28;20947;-83
2022/10/26 13:22:23;;;;;;;14.90;6.20;;;;;;;;;;5038163;28;20427;-85
2022/10/26 13:24:52;;;;;;;10.63;5.80;;;;;;;;;;5039210;28;20869;-83
2022/10/26 13:27:39;;;;;;;6.88;5.40;;;;;;;;;;5040550;28;20421;-83
2022/10/26 13:30:34;;;;;;;9.83;6.23;;;;;;;;;;5040756;28;20487;-84
2022/10/26 13:33:01;;;;;;;8.30;5.70;;;;;;;;;;5039327;28;20417;-83
2022/10/26 13:35:28;;;;;;;7.70;5.60;;;;;;;;;;5038922;28;20477;-83
2022/10/26 13:37:55;;;;;;;13.93;6.05;;;;;;;;;;5039829;28;20932;-83
2022/10/26 13:40:25;;;;;;;10.43;5.90;;;;;;;;;;5041546;28;20425;-83
2022/10/26 13:42:53;;;;;;;7.25;5.30;;;;;;;;;;5042902;28;20429;-84
2022/10/26 13:45:22;;;;;;;10.40;4.80;;;;;;;;;;5035478;28;21095;-83
2022/10/26 13:47:52;;;;;;;6.43;4.90;;;;;;;;;;5040273;28;20429;-84
2022/10/26 13:50:20;;;;;;;7.70;5.00;;;;;;;;;;5039586;28;20439;-83
2022/10/26 13:52:48;;;;;;;7.20;4.30;;;;;;;;;;5043158;28;20421;-84
2022/10/26 13:55:17;;;;;;;8.35;4.18;;;;;;;;;;5040447;28;20914;-84
2022/10/26 13:57:48;;;;;;;6.85;3.88;;;;;;;;;;5037832;28;20487;-84
2022/10/26 14:00:16;;;;;;;11.02;4.93;;;;;;;;;;5040020;28;20441;-84
2022/10/26 14:02:43;;;;;;;8.40;4.70;;;;;;;;;;5037342;28;20426;-83
2022/10/26 14:05:12;;;;;;;5.10;3.70;;;;;;;;;;5042689;28;20417;-84
2022/10/26 14:07:42;;;;;;;7.90;3.65;;;;;;;;;;5038088;28;20415;-84
2022/10/26 14:10:23;;;;;;;7.72;4.20;;;;;;;;;;5041728;28;20446;-84
2022/10/26 14:12:51;;;;;;;11.65;4.38;;;;;;;;;;5039290;28;20419;-84
2022/10/26 14:15:19;;;;;;;7.00;4.10;;;;;;;;;;5037512;28;20429;-84
2022/10/26 14:17:49;;;;;;;5.50;4.55;;;;;;;;;;5036844;28;20758;-84
2022/10/26 14:20:18;;;;;;;6.38;4.20;;;;;;;;;;5040020;28;20421;-84
2022/10/26 14:22:45;;;;;;;8.70;4.03;;;;;;;;;;5041036;28;20417;-83
2022/10/26 14:25:21;;;;;;;6.07;3.40;;;;;;;;;;5040509;28;20421;-84
2022/10/26 14:27:47;;;;;;;7.15;4.13;;;;;;;;;;5034885;28;20766;-82
2022/10/26 14:30:22;;;;;;;7.32;3.55;;;;;;;;;;5042358;28;20423;-83
2022/10/26 14:32:49;;;;;;;8.63;3.88;;;;;;;;;;5038669;28;20422;-82